createdAt,value
2023-01-26T00:01:24.536Z,1.60
2023-01-26T00:03:51.901Z,1.50
2023-01-26T00:06:20.907Z,1.51
2023-01-26T00:08:53.820Z,1.44
2023-01-26T00:11:29.546Z,1.51
2023-01-26T00:14:01.057Z,1.51
2023-01-26T00:16:28.889Z,1.40
2023-01-26T00:19:03.499Z,1.57
2023-01-26T00:21:30.631Z,1.44
2023-01-26T00:23:58.488Z,1.52
2023-01-26T00:26:27.086Z,1.44
2023-01-26T00:28:55.149Z,1.79
2023-01-26T00:31:27.155Z,1.67
2023-01-26T00:33:55.671Z,1.65
2023-01-26T00:36:23.084Z,1.49
2023-01-26T00:38:50.162Z,1.39
2023-01-26T00:41:35.930Z,1.46
2023-01-26T00:44:03.182Z,1.44
2023-01-26T00:46:30.334Z,1.70
2023-01-26T00:48:57.453Z,1.68
2023-01-26T00:51:24.399Z,1.50
2023-01-26T00:53:51.392Z,1.57
2023-01-26T00:56:19.180Z,1.52
2023-01-26T00:58:46.774Z,1.45
2023-01-26T01:01:13.819Z,1.63
2023-01-26T01:03:42.720Z,1.59
2023-01-26T01:06:09.764Z,1.43
2023-01-26T01:08:36.913Z,1.32
2023-01-26T01:11:06.691Z,1.44
2023-01-26T01:13:33.748Z,1.30
2023-01-26T01:16:00.776Z,1.23
2023-01-26T01:18:27.830Z,1.28
2023-01-26T01:20:54.940Z,1.18
2023-01-26T01:23:22.114Z,1.01
2023-01-26T01:25:57.422Z,1.09
2023-01-26T01:28:24.391Z,1.05
2023-01-26T01:30:51.592Z,1.17
2023-01-26T01:33:19.065Z,1.23
2023-01-26T01:35:57.100Z,1.25
2023-01-26T01:38:24.567Z,1.22
2023-01-26T01:40:51.987Z,1.26
2023-01-26T01:43:19.517Z,1.24
2023-01-26T01:45:48.019Z,1.19
2023-01-26T01:49:02.819Z,1.28
2023-01-26T01:51:53.061Z,1.33
2023-01-26T01:54:28.369Z,1.12
2023-01-26T01:57:00.870Z,1.06
2023-01-26T01:59:28.561Z,1.03
2023-01-26T02:01:56.804Z,1.01
2023-01-26T02:04:24.901Z,0.98
2023-01-26T02:06:59.308Z,1.14
2023-01-26T02:09:50.367Z,1.08
2023-01-26T02:12:21.144Z,1.20
2023-01-26T02:14:49.551Z,1.36
2023-01-26T02:17:16.629Z,1.44
2023-01-26T02:20:05.692Z,1.23
2023-01-26T02:22:51.827Z,1.26
2023-01-26T02:25:45.312Z,1.38
2023-01-26T02:28:12.321Z,1.12
2023-01-26T02:30:39.740Z,0.98
2023-01-26T02:33:06.753Z,0.91
2023-01-26T02:35:34.656Z,0.84
2023-01-26T02:38:02.267Z,0.98
2023-01-26T02:40:44.911Z,0.96
2023-01-26T02:43:12.571Z,0.90
2023-01-26T02:45:41.176Z,1.00
2023-01-26T02:48:08.459Z,1.44
2023-01-26T02:50:35.804Z,1.46
2023-01-26T02:53:03.947Z,1.32
2023-01-26T02:55:31.483Z,1.14
2023-01-26T02:58:03.773Z,1.37
2023-01-26T03:00:40.966Z,1.32
2023-01-26T03:03:23.956Z,1.00
2023-01-26T03:05:51.771Z,1.06
2023-01-26T03:08:18.945Z,0.85
2023-01-26T03:10:47.724Z,0.74
2023-01-26T03:13:15.162Z,1.07
2023-01-26T03:15:48.206Z,1.20
2023-01-26T03:18:37.709Z,0.86
2023-01-26T03:21:28.600Z,0.84
2023-01-26T03:24:14.124Z,0.86
2023-01-26T03:27:01.683Z,0.81
2023-01-26T03:29:31.986Z,0.74
2023-01-26T03:32:01.268Z,0.83
2023-01-26T03:34:29.802Z,0.70
2023-01-26T03:36:57.628Z,0.73
2023-01-26T03:39:43.658Z,0.81
2023-01-26T03:42:29.256Z,0.51
2023-01-26T03:45:15.169Z,0.41
2023-01-26T03:48:01.978Z,0.66
2023-01-26T03:50:49.146Z,0.78
2023-01-26T03:53:38.768Z,0.70
2023-01-26T03:56:24.603Z,0.69
2023-01-26T03:59:09.622Z,0.63
2023-01-26T04:02:03.807Z,0.66
2023-01-26T04:04:50.550Z,0.82
2023-01-26T04:07:38.531Z,0.65
2023-01-26T04:10:06.956Z,0.57
2023-01-26T04:12:34.519Z,0.66
2023-01-26T04:15:40.327Z,0.59
2023-01-26T04:18:26.909Z,0.75
2023-01-26T04:21:13.279Z,0.71
2023-01-26T04:23:42.665Z,0.78
2023-01-26T04:26:09.964Z,0.70
2023-01-26T04:28:38.444Z,0.57
2023-01-26T04:31:06.203Z,0.63
2023-01-26T04:33:36.137Z,0.68
2023-01-26T04:36:07.646Z,0.58
2023-01-26T04:38:37.466Z,0.65
2023-01-26T04:41:04.949Z,0.86
2023-01-26T04:43:38.499Z,0.64
2023-01-26T04:46:07.373Z,0.41
2023-01-26T04:48:36.801Z,0.27
2023-01-26T04:51:07.961Z,0.36
2023-01-26T04:53:35.380Z,0.43
2023-01-26T04:56:02.544Z,0.62
2023-01-26T04:58:30.529Z,0.72
2023-01-26T05:00:58.937Z,0.56
2023-01-26T05:03:29.773Z,0.28
2023-01-26T05:05:57.257Z,0.27
2023-01-26T05:08:25.355Z,0.41
2023-01-26T05:10:52.753Z,0.37
2023-01-26T05:13:40.391Z,0.37
2023-01-26T05:16:30.157Z,0.47
2023-01-26T05:19:20.154Z,0.40
2023-01-26T05:22:22.312Z,0.71
2023-01-26T05:25:09.838Z,0.58
2023-01-26T05:27:42.427Z,0.55
2023-01-26T05:30:14.383Z,0.64
2023-01-26T05:32:42.797Z,0.73
2023-01-26T05:35:10.638Z,0.83
2023-01-26T05:37:37.859Z,0.90
2023-01-26T05:40:05.706Z,1.08
2023-01-26T05:42:32.926Z,0.98
2023-01-26T05:45:09.903Z,1.03
2023-01-26T05:47:39.143Z,0.92
2023-01-26T05:50:07.306Z,0.94
2023-01-26T05:52:35.208Z,1.06
2023-01-26T05:55:02.546Z,1.17
2023-01-26T05:57:29.636Z,1.21
2023-01-26T06:00:06.435Z,1.21
2023-01-26T06:02:41.770Z,1.26
2023-01-26T06:05:12.629Z,1.15
2023-01-26T06:07:40.668Z,1.27
2023-01-26T06:10:15.304Z,1.29
2023-01-26T06:13:01.029Z,1.11
2023-01-26T06:16:00.959Z,1.19
2023-01-26T06:18:29.999Z,1.20
2023-01-26T06:21:01.312Z,1.30
2023-01-26T06:23:28.653Z,1.44
2023-01-26T06:26:01.978Z,1.39
2023-01-26T06:28:31.456Z,1.32
2023-01-26T06:31:06.707Z,1.43
2023-01-26T06:33:36.151Z,1.55
2023-01-26T06:36:06.028Z,1.47
2023-01-26T06:38:33.229Z,1.51
2023-01-26T06:41:03.850Z,1.41
2023-01-26T06:43:32.578Z,1.56
2023-01-26T06:46:01.597Z,1.57
2023-01-26T06:48:31.772Z,1.45
2023-01-26T06:51:37.251Z,1.56
2023-01-26T06:54:04.613Z,1.45
2023-01-26T06:56:39.416Z,1.63
2023-01-26T06:59:29.678Z,1.68
2023-01-26T07:02:22.551Z,1.66
2023-01-26T07:04:51.273Z,1.59
2023-01-26T07:07:18.346Z,1.52
2023-01-26T07:09:45.699Z,1.49
2023-01-26T07:12:12.780Z,1.76
2023-01-26T07:14:40.153Z,1.55
2023-01-26T07:17:07.310Z,1.99
2023-01-26T07:19:34.383Z,1.89
2023-01-26T07:22:02.097Z,1.66
2023-01-26T07:24:29.835Z,1.73
2023-01-26T07:26:57.237Z,1.60
2023-01-26T07:29:24.411Z,1.73
2023-01-26T07:31:51.894Z,1.79
2023-01-26T07:34:20.174Z,1.91
2023-01-26T07:36:47.150Z,1.88
2023-01-26T07:39:14.197Z,1.88
2023-01-26T07:41:41.186Z,1.98
2023-01-26T07:44:39.172Z,1.89
2023-01-26T07:47:06.457Z,1.90
2023-01-26T07:49:33.743Z,1.98
2023-01-26T07:52:01.384Z,1.90
2023-01-26T07:54:29.603Z,2.47
2023-01-26T07:56:56.908Z,2.28
2023-01-26T07:59:24.335Z,2.55
2023-01-26T08:01:52.347Z,2.59
2023-01-26T08:04:19.481Z,2.62
2023-01-26T08:06:46.709Z,2.78
2023-01-26T08:09:13.909Z,2.97
2023-01-26T08:11:41.250Z,3.14
2023-01-26T08:14:08.455Z,3.27
2023-01-26T08:16:35.553Z,3.15
2023-01-26T08:19:03.226Z,3.23
2023-01-26T08:21:30.582Z,3.23
2023-01-26T08:24:02.154Z,3.29
2023-01-26T08:26:29.833Z,3.22
2023-01-26T08:28:57.291Z,3.34
2023-01-26T08:31:25.868Z,3.30
2023-01-26T08:33:54.542Z,3.39
2023-01-26T08:36:23.105Z,3.25
